Time;durP1;ratioP1;P1;durP2;ratioP2;P2;SDS_P1;SDS_P2;PMS_P1;PMS_P2;Temp;Humidity;BMP_temperature;BMP_pressure;BME280_temperature;BME280_humidity;BME280_pressure;Samples;Min_cycle;Max_cycle;Signal;HPM_P1;HPM_P2
2023/08/25 00:00:20;125367.00;0.42;217.34;0.00;0.00;0.62;;;;;26.10;1.00;;;;;;2272600;61;1420;-86
2023/08/25 00:02:47;125254.00;0.42;217.14;0.00;0.00;0.62;;;;;26.00;1.00;;;;;;2272474;61;1031;-85
2023/08/25 00:05:15;121845.00;0.41;211.26;0.00;0.00;0.62;;;;;25.90;1.00;;;;;;2272655;61;1090;-86
2023/08/25 00:07:42;238403.00;0.79;412.00;19187.00;0.06;33.86;;;;;25.70;1.00;;;;;;2272598;61;1097;-87
2023/08/25 00:10:09;387682.00;1.29;668.63;20251.00;0.07;35.70;;;;;25.90;1.00;;;;;;2272441;61;1400;-87
2023/08/25 00:12:36;444402.00;1.48;766.15;50532.00;0.17;88.11;;;;;25.90;1.00;;;;;;2272616;61;1997;-86
2023/08/25 00:15:03;41914.00;0.14;73.20;0.00;0.00;0.62;;;;;26.00;1.00;;;;;;2272606;61;1137;-87
2023/08/25 00:17:30;22646.00;0.08;39.85;0.00;0.00;0.62;;;;;26.00;1.00;;;;;;2272532;61;1111;-86
2023/08/25 00:19:56;122570.00;0.41;212.52;0.00;0.00;0.62;;;;;25.90;1.00;;;;;;2272583;61;1063;-86
2023/08/25 00:22:25;79968.00;0.27;138.98;0.00;0.00;0.62;;;;;25.80;1.00;;;;;;2272460;61;1231;-86
2023/08/25 00:24:52;191890.00;0.64;331.96;0.00;0.00;0.62;;;;;25.90;1.00;;;;;;2272477;61;1056;-86
2023/08/25 00:27:20;67834.00;0.23;118.02;0.00;0.00;0.62;;;;;25.90;1.00;;;;;;2272778;61;1206;-86
2023/08/25 00:29:47;103910.00;0.35;180.32;0.00;0.00;0.62;;;;;26.00;1.00;;;;;;2273316;61;1146;-86
2023/08/25 00:32:14;8284.00;0.03;14.98;0.00;0.00;0.62;;;;;26.00;1.00;;;;;;2273258;61;1923;-87
2023/08/25 00:34:41;308571.00;1.03;532.65;9971.00;0.03;17.90;;;;;25.90;1.00;;;;;;2273286;61;1531;-89
2023/08/25 00:37:08;154847.00;0.52;268.16;0.00;0.00;0.62;;;;;25.90;1.00;;;;;;2273241;61;1086;-89
2023/08/25 00:39:36;219561.00;0.73;379.59;0.00;0.00;0.62;;;;;25.90;1.00;;;;;;2273217;61;1001;-87
2023/08/25 00:42:03;0.00;0.00;0.62;0.00;0.00;0.62;;;;;26.00;1.00;;;;;;2273274;61;1323;-87
2023/08/25 00:44:30;128863.00;0.43;223.37;0.00;0.00;0.62;;;;;26.10;1.00;;;;;;2273288;61;906;-87
2023/08/25 00:46:57;117877.00;0.39;204.42;0.00;0.00;0.62;;;;;26.10;1.00;;;;;;2273273;61;978;-85
2023/08/25 00:49:25;151628.00;0.51;262.61;0.00;0.00;0.62;;;;;26.10;1.00;;;;;;2273114;61;955;-86
2023/08/25 00:51:53;85397.00;0.28;148.36;0.00;0.00;0.62;;;;;26.00;1.00;;;;;;2273171;61;1919;-87
2023/08/25 00:54:24;97096.00;0.32;168.56;0.00;0.00;0.62;;;;;25.90;1.00;;;;;;2273224;61;1061;-85
2023/08/25 00:56:53;140955.00;0.47;244.22;0.00;0.00;0.62;;;;;25.80;1.00;;;;;;2273235;61;997;-87
2023/08/25 00:59:20;72600.00;0.24;126.25;0.00;0.00;0.62;;;;;25.90;1.00;;;;;;2273198;61;1224;-86
2023/08/25 01:01:47;163262.00;0.54;282.66;0.00;0.00;0.62;;;;;25.90;1.00;;;;;;2273119;61;1317;-85
2023/08/25 01:04:14;0.00;0.00;0.62;0.00;0.00;0.62;;;;;26.00;1.00;;;;;;2273109;61;1102;-86
2023/08/25 01:06:41;295729.00;0.99;510.58;0.00;0.00;0.62;;;;;26.00;1.00;;;;;;2273011;61;1563;-87
2023/08/25 01:09:10;117111.00;0.39;203.10;0.00;0.00;0.62;;;;;26.10;1.00;;;;;;2273107;61;1090;-86
2023/08/25 01:11:45;78557.00;0.26;136.54;0.00;0.00;0.62;;;;;26.00;1.00;;;;;;2273062;61;1297;-86
2023/08/25 01:14:22;80642.00;0.27;140.15;0.00;0.00;0.62;;;;;26.10;1.00;;;;;;2273044;61;1138;-86
2023/08/25 01:16:58;100760.00;0.34;174.88;0.00;0.00;0.62;;;;;26.00;1.00;;;;;;2273044;61;1013;-86
2023/08/25 01:19:44;123505.00;0.41;214.13;0.00;0.00;0.62;;;;;25.70;1.00;;;;;;2273176;61;1045;-84
2023/08/25 01:22:22;199077.00;0.66;344.33;0.00;0.00;0.62;;;;;25.30;1.00;;;;;;2273095;61;1422;-87
2023/08/25 01:24:55;104381.00;0.35;181.13;0.00;0.00;0.62;;;;;25.10;1.00;;;;;;2273002;61;1094;-86
2023/08/25 01:27:25;115604.00;0.39;200.50;0.00;0.00;0.62;;;;;24.80;1.40;;;;;;2273080;61;1407;-87
2023/08/25 01:29:51;86800.00;0.29;150.78;0.00;0.00;0.62;;;;;24.70;2.20;;;;;;2273064;61;1005;-86
2023/08/25 01:32:19;151576.00;0.51;262.52;0.00;0.00;0.62;;;;;24.50;2.70;;;;;;2273023;61;1998;-86
2023/08/25 01:34:46;298728.00;1.00;515.73;14923.00;0.05;26.48;;;;;24.50;2.90;;;;;;2273033;61;1090;-86
2023/08/25 01:37:20;0.00;0.00;0.62;0.00;0.00;0.62;;;;;24.50;2.60;;;;;;2273085;61;1097;-87
2023/08/25 01:39:50;86509.00;0.29;150.28;0.00;0.00;0.62;;;;;24.60;2.80;;;;;;2272761;61;1091;-87
2023/08/25 01:42:20;7685.00;0.03;13.94;0.00;0.00;0.62;;;;;24.90;1.70;;;;;;2273016;61;1375;-87
2023/08/25 01:44:50;121807.00;0.41;211.20;0.00;0.00;0.62;;;;;24.90;1.50;;;;;;2273069;61;1092;-87
2023/08/25 01:47:23;116649.00;0.39;202.30;0.00;0.00;0.62;;;;;25.00;1.10;;;;;;2273046;61;1002;-87
2023/08/25 01:49:51;68384.00;0.23;118.97;0.00;0.00;0.62;;;;;25.00;1.30;;;;;;2273023;61;1107;-87
2023/08/25 01:52:19;49590.00;0.17;86.48;0.00;0.00;0.62;;;;;25.10;1.30;;;;;;2272987;61;1919;-87
2023/08/25 01:54:45;80201.00;0.27;139.38;0.00;0.00;0.62;;;;;25.10;1.00;;;;;;2272953;61;887;-86
2023/08/25 01:57:12;25635.00;0.09;45.03;0.00;0.00;0.62;;;;;25.20;1.00;;;;;;2272993;61;941;-86
2023/08/25 01:59:39;152775.00;0.51;264.59;0.00;0.00;0.62;;;;;25.30;1.00;;;;;;2272955;61;1063;-87
2023/08/25 02:02:07;40076.00;0.13;70.02;0.00;0.00;0.62;;;;;25.40;1.00;;;;;;2272988;61;1387;-86
2023/08/25 02:04:34;155535.00;0.52;269.35;0.00;0.00;0.62;;;;;25.50;1.00;;;;;;2273002;61;1029;-85
2023/08/25 02:07:02;134601.00;0.45;233.26;0.00;0.00;0.62;;;;;25.60;1.00;;;;;;2272909;61;1091;-86
2023/08/25 02:09:29;15085.00;0.05;26.76;0.00;0.00;0.62;;;;;25.60;1.00;;;;;;2272946;61;1028;-87
2023/08/25 02:11:56;273130.00;0.91;471.73;0.00;0.00;0.62;;;;;25.60;1.00;;;;;;2272950;61;1382;-86
2023/08/25 02:14:22;366923.00;1.22;632.95;52271.00;0.17;91.11;;;;;25.50;1.00;;;;;;2272642;61;1940;-87
2023/08/25 02:16:49;129962.00;0.43;225.26;0.00;0.00;0.62;;;;;25.50;1.00;;;;;;2272856;61;1046;-87
2023/08/25 02:19:17;117748.00;0.39;204.20;0.00;0.00;0.62;;;;;25.50;1.00;;;;;;2272924;61;1110;-85
2023/08/25 02:21:45;73777.00;0.25;128.29;0.00;0.00;0.62;;;;;25.60;1.00;;;;;;2272897;61;1415;-86
2023/08/25 02:24:12;158795.00;0.53;274.96;0.00;0.00;0.62;;;;;25.60;1.00;;;;;;2272807;61;1633;-86
2023/08/25 02:26:39;171178.00;0.57;296.30;0.00;0.00;0.62;;;;;25.50;1.00;;;;;;2272923;61;953;-86
2023/08/25 02:29:07;211009.00;0.70;364.87;0.00;0.00;0.62;;;;;25.50;1.00;;;;;;2272827;61;1001;-86
2023/08/25 02:31:34;90659.00;0.30;157.45;10324.00;0.03;18.51;;;;;25.60;1.00;;;;;;2272783;61;1432;-88
2023/08/25 02:34:01;104837.00;0.35;181.92;0.00;0.00;0.62;;;;;25.60;1.00;;;;;;2272771;61;2001;-85
2023/08/25 02:36:29;128557.00;0.43;222.84;0.00;0.00;0.62;;;;;25.50;1.00;;;;;;2272820;61;1586;-86
2023/08/25 02:38:56;139458.00;0.46;241.64;0.00;0.00;0.62;;;;;25.50;1.00;;;;;;2272806;61;1008;-85
2023/08/25 02:41:22;83237.00;0.28;144.63;0.00;0.00;0.62;;;;;25.50;1.00;;;;;;2272695;61;1442;-86
2023/08/25 02:43:49;86188.00;0.29;149.72;0.00;0.00;0.62;;;;;25.50;1.00;;;;;;2272739;61;1075;-85
2023/08/25 02:46:16;168083.00;0.56;290.96;10884.00;0.04;19.48;;;;;25.60;1.00;;;;;;2272790;61;1059;-86
2023/08/25 02:48:43;45167.00;0.15;78.83;0.00;0.00;0.62;;;;;25.70;1.00;;;;;;2272866;61;1078;-84
2023/08/25 02:51:10;77934.00;0.26;135.47;0.00;0.00;0.62;;;;;25.70;1.00;;;;;;2272745;61;1312;-85
2023/08/25 02:53:38;174597.00;0.58;302.18;0.00;0.00;0.62;;;;;25.70;1.00;;;;;;2272766;61;2003;-86
2023/08/25 02:56:05;199462.00;0.66;345.00;0.00;0.00;0.62;;;;;25.60;1.00;;;;;;2272748;61;1684;-86
2023/08/25 02:58:32;386235.00;1.29;666.14;33930.00;0.11;59.38;;;;;25.50;1.00;;;;;;2272855;61;1042;-86
2023/08/25 03:00:58;0.00;0.00;0.62;0.00;0.00;0.62;;;;;25.60;1.00;;;;;;2272822;61;1363;-87
2023/08/25 03:03:26;147777.00;0.49;255.98;0.00;0.00;0.62;;;;;25.60;1.00;;;;;;2273128;61;1078;-87
2023/08/25 03:05:53;247672.00;0.83;427.95;53948.00;0.18;94.01;;;;;25.60;1.00;;;;;;2273080;61;1073;-86
2023/08/25 03:08:21;131699.00;0.44;228.26;0.00;0.00;0.62;;;;;25.80;1.00;;;;;;2273101;61;1082;-86
2023/08/25 03:10:49;113780.00;0.38;197.35;23225.00;0.08;40.85;;;;;25.60;1.00;;;;;;2273094;61;1319;-87
2023/08/25 03:13:16;160431.00;0.53;277.78;0.00;0.00;0.62;;;;;25.60;1.00;;;;;;2273057;61;2010;-88
2023/08/25 03:15:43;378791.00;1.26;653.35;148580.00;0.50;257.36;;;;;25.70;1.00;;;;;;2273046;61;1422;-86
2023/08/25 03:18:10;56580.00;0.19;98.56;0.00;0.00;0.62;;;;;25.70;1.00;;;;;;2273060;61;960;-86
2023/08/25 03:20:36;113875.00;0.38;197.52;0.00;0.00;0.62;;;;;25.70;1.00;;;;;;2273055;61;1309;-86
2023/08/25 03:23:03;153577.00;0.51;265.97;0.00;0.00;0.62;;;;;25.40;1.00;;;;;;2273009;61;1040;-85
2023/08/25 03:25:30;277762.00;0.93;479.69;0.00;0.00;0.62;;;;;25.00;1.00;;;;;;2273004;61;1099;-86
2023/08/25 03:28:00;77838.00;0.26;135.30;0.00;0.00;0.62;;;;;24.70;1.90;;;;;;2273065;61;926;-87
2023/08/25 03:30:27;13748.00;0.05;24.44;0.00;0.00;0.62;;;;;24.90;2.10;;;;;;2273063;61;1418;-86
2023/08/25 03:32:54;174357.00;0.58;301.77;0.00;0.00;0.62;;;;;25.00;1.00;;;;;;2272939;61;1922;-86
2023/08/25 03:35:21;81769.00;0.27;142.09;0.00;0.00;0.62;;;;;25.10;1.00;;;;;;2272945;61;1127;-86
2023/08/25 03:37:48;95202.00;0.32;165.29;0.00;0.00;0.62;;;;;24.80;2.00;;;;;;2273006;61;1051;-87
2023/08/25 03:40:15;102646.00;0.34;178.14;0.00;0.00;0.62;;;;;25.00;1.80;;;;;;2272983;61;1327;-87
2023/08/25 03:42:42;110373.00;0.37;191.47;0.00;0.00;0.62;;;;;25.20;1.00;;;;;;2272976;61;1145;-86
2023/08/25 03:45:10;120935.00;0.40;209.70;0.00;0.00;0.62;;;;;25.20;1.00;;;;;;2273052;61;1087;-87
2023/08/25 03:47:37;144957.00;0.48;251.12;0.00;0.00;0.62;;;;;25.20;1.90;;;;;;2272857;61;1052;-86
2023/08/25 03:50:05;88786.00;0.30;154.21;0.00;0.00;0.62;;;;;25.20;1.50;;;;;;2272927;61;1488;-86
2023/08/25 03:52:31;69498.00;0.23;120.89;0.00;0.00;0.62;;;;;25.20;1.90;;;;;;2272870;61;1004;-87
2023/08/25 03:54:58;295922.00;0.99;510.91;0.00;0.00;0.62;;;;;25.00;2.60;;;;;;2272938;61;2007;-87
2023/08/25 03:57:25;178639.00;0.60;309.15;0.00;0.00;0.62;;;;;25.00;2.60;;;;;;2272945;61;1088;-85
2023/08/25 03:59:52;0.00;0.00;0.62;0.00;0.00;0.62;;;;;24.90;1.90;;;;;;2272943;61;1001;-86
2023/08/25 04:02:20;203881.00;0.68;352.60;18204.00;0.06;32.16;;;;;24.90;1.20;;;;;;2272803;61;1421;-87
2023/08/25 04:04:47;227024.00;0.76;392.43;0.00;0.00;0.62;;;;;24.90;1.90;;;;;;2272983;61;1130;-86
2023/08/25 04:07:14;345939.00;1.15;596.88;0.00;0.00;0.62;;;;;25.10;2.00;;;;;;2272762;61;970;-87
2023/08/25 04:09:41;106909.00;0.36;185.50;0.00;0.00;0.62;;;;;24.70;3.00;;;;;;2275701;40;3620;-87
2023/08/25 04:12:08;334765.00;1.12;577.68;0.00;0.00;0.62;;;;;24.70;3.20;;;;;;2272917;61;1420;-87
2023/08/25 04:14:35;81502.00;0.27;141.63;0.00;0.00;0.62;;;;;24.70;3.20;;;;;;2272893;61;1910;-86
2023/08/25 04:17:02;102880.00;0.34;178.54;0.00;0.00;0.62;;;;;24.80;3.10;;;;;;2272765;61;1110;-87
2023/08/25 04:19:31;172610.00;0.58;298.76;0.00;0.00;0.62;;;;;24.90;2.70;;;;;;2272877;61;1123;-87
2023/08/25 04:21:59;168199.00;0.56;291.16;0.00;0.00;0.62;;;;;25.10;1.40;;;;;;2272848;61;1341;-87
2023/08/25 04:24:25;94665.00;0.32;164.36;10641.00;0.04;19.06;;;;;25.00;1.10;;;;;;2272831;61;1051;-86
2023/08/25 04:26:53;126214.00;0.42;218.80;0.00;0.00;0.62;;;;;25.10;1.00;;;;;;2272833;61;1048;-86
2023/08/25 04:29:20;160489.00;0.53;277.88;0.00;0.00;0.62;;;;;25.10;2.40;;;;;;2272922;61;1148;-87
2023/08/25 04:31:47;103507.00;0.35;179.62;0.00;0.00;0.62;;;;;25.10;2.10;;;;;;2272802;61;1253;-87
2023/08/25 04:34:14;490338.00;1.63;845.19;74874.00;0.25;130.18;;;;;25.20;1.40;;;;;;2272785;61;2008;-87
2023/08/25 04:36:45;103105.00;0.34;178.93;0.00;0.00;0.62;;;;;24.90;2.10;;;;;;2272785;61;942;-88
2023/08/25 04:39:13;55409.00;0.18;96.54;0.00;0.00;0.62;;;;;24.80;2.90;;;;;;2272903;61;1341;-86
2023/08/25 04:41:41;141353.00;0.47;244.90;13234.00;0.04;23.55;;;;;24.60;3.60;;;;;;2272811;61;1349;-85
2023/08/25 04:44:08;214582.00;0.72;371.02;24391.00;0.08;42.87;;;;;24.60;1.20;;;;;;2272834;61;1061;-87
2023/08/25 04:46:35;187374.00;0.62;324.19;0.00;0.00;0.62;;;;;24.70;1.00;;;;;;2272830;61;1244;-85
2023/08/25 04:49:02;124188.00;0.41;215.31;0.00;0.00;0.62;;;;;24.80;1.00;;;;;;2272790;61;1086;-86
2023/08/25 04:51:29;353232.00;1.18;609.42;66591.00;0.22;115.87;;;;;25.00;1.00;;;;;;2272782;61;1254;-86
2023/08/25 04:53:57;367098.00;1.22;633.25;15075.00;0.05;26.74;;;;;25.00;1.00;;;;;;2272722;61;2008;-87
2023/08/25 04:56:24;133909.00;0.45;232.07;0.00;0.00;0.62;;;;;25.30;1.00;;;;;;2272841;61;898;-86
2023/08/25 04:58:51;220898.00;0.74;381.89;0.00;0.00;0.62;;;;;25.40;1.00;;;;;;2272625;61;1687;-87
2023/08/25 05:01:18;176784.00;0.59;305.95;0.00;0.00;0.62;;;;;25.20;1.00;;;;;;2272722;61;1347;-86
2023/08/25 05:03:45;125815.00;0.42;218.11;0.00;0.00;0.62;;;;;24.90;1.80;;;;;;2272782;61;983;-88
2023/08/25 05:06:12;232621.00;0.78;402.06;12967.00;0.04;23.09;;;;;24.80;1.80;;;;;;2272808;61;963;-87
2023/08/25 05:08:38;109038.00;0.36;189.17;0.00;0.00;0.62;;;;;24.60;3.00;;;;;;2272713;61;1036;-87
2023/08/25 05:11:09;105882.00;0.35;183.72;0.00;0.00;0.62;;;;;24.20;4.30;;;;;;2272624;61;1732;-87
2023/08/25 05:13:36;280673.00;0.94;484.69;43619.00;0.15;76.15;;;;;24.00;4.70;;;;;;2272963;61;1919;-87
2023/08/25 05:16:03;68866.00;0.23;119.80;0.00;0.00;0.62;;;;;24.00;5.60;;;;;;2273442;61;975;-87
2023/08/25 05:18:32;165745.00;0.55;286.94;0.00;0.00;0.62;;;;;24.20;5.50;;;;;;2273478;61;1060;-88
2023/08/25 05:21:00;136442.00;0.45;236.44;0.00;0.00;0.62;;;;;24.30;5.70;;;;;;2273459;61;1291;-87
2023/08/25 05:23:27;77018.00;0.26;133.89;0.00;0.00;0.62;;;;;24.50;5.20;;;;;;2273473;61;1027;-86
2023/08/25 05:25:55;78032.00;0.26;135.64;0.00;0.00;0.62;;;;;24.80;4.50;;;;;;2273455;61;1275;-86
2023/08/25 05:28:24;144593.00;0.48;250.49;0.00;0.00;0.62;;;;;25.10;3.70;;;;;;2273220;61;1564;-86
2023/08/25 05:30:51;184944.00;0.62;320.00;0.00;0.00;0.62;;;;;25.50;2.60;;;;;;2273300;61;1537;-87
2023/08/25 05:33:18;123510.00;0.41;214.14;0.00;0.00;0.62;;;;;26.10;1.40;;;;;;2273396;61;1916;-86
2023/08/25 05:35:44;273668.00;0.91;472.65;58592.00;0.20;102.04;;;;;26.90;1.20;;;;;;2273347;61;1551;-87
2023/08/25 05:38:11;415422.00;1.38;716.32;0.00;0.00;0.62;;;;;28.00;1.00;;;;;;2273353;61;1102;-86
2023/08/25 05:40:39;240139.00;0.80;414.99;0.00;0.00;0.62;;;;;28.80;1.00;;;;;;2273427;61;1416;-87
2023/08/25 05:43:06;149403.00;0.50;258.78;0.00;0.00;0.62;;;;;29.40;1.00;;;;;;2273396;61;1475;-86
2023/08/25 05:45:34;189750.00;0.63;328.28;6427.00;0.02;11.76;;;;;30.20;1.00;;;;;;2273436;61;1138;-88
2023/08/25 05:48:01;232275.00;0.77;401.46;0.00;0.00;0.62;;;;;31.40;1.00;;;;;;2273317;61;1746;-88
2023/08/25 05:50:29;116911.00;0.39;202.75;0.00;0.00;0.62;;;;;31.30;1.00;;;;;;2273349;61;1372;-88
2023/08/25 05:52:56;184189.00;0.61;318.70;41716.00;0.14;72.86;;;;;31.10;1.00;;;;;;2273320;61;902;-87
2023/08/25 05:55:23;111868.00;0.37;194.05;0.00;0.00;0.62;;;;;31.50;1.00;;;;;;2273295;61;1932;-86
2023/08/25 05:57:50;89717.00;0.30;155.82;0.00;0.00;0.62;;;;;31.70;1.00;;;;;;2273337;61;1073;-87
2023/08/25 06:00:18;269748.00;0.90;465.91;0.00;0.00;0.62;;;;;31.70;1.00;;;;;;2273355;61;1287;-87
2023/08/25 06:02:46;187894.00;0.63;325.08;0.00;0.00;0.62;;;;;31.10;1.00;;;;;;2273365;61;1003;-88
2023/08/25 06:05:13;371841.00;1.24;641.40;64092.00;0.21;111.55;;;;;31.10;1.00;;;;;;2273229;61;1115;-88
2023/08/25 06:07:40;168948.00;0.56;292.45;0.00;0.00;0.62;;;;;31.40;1.00;;;;;;2273298;61;1449;-88
2023/08/25 06:10:09;177099.00;0.59;306.49;0.00;0.00;0.62;;;;;31.70;1.00;;;;;;2273151;61;1420;-88
2023/08/25 06:12:36;133022.00;0.44;230.54;0.00;0.00;0.62;;;;;32.30;1.00;;;;;;2273286;61;1032;-86
2023/08/25 06:15:03;184464.00;0.61;319.18;54525.00;0.18;95.01;;;;;32.60;1.00;;;;;;2273279;61;2001;-86
2023/08/25 06:17:30;383724.00;1.28;661.83;63829.00;0.21;111.10;;;;;32.20;1.00;;;;;;2273309;61;1054;-85
2023/08/25 06:19:58;190193.00;0.63;329.04;0.00;0.00;0.62;;;;;32.10;1.00;;;;;;2273196;61;1165;-86
2023/08/25 06:22:25;277637.00;0.93;479.47;14924.00;0.05;26.48;;;;;31.60;1.00;;;;;;2273192;61;1343;-86
2023/08/25 06:24:52;152633.00;0.51;264.35;0.00;0.00;0.62;;;;;31.20;1.00;;;;;;2272991;61;1122;-86
2023/08/25 06:27:19;331486.00;1.10;572.04;0.00;0.00;0.62;;;;;30.50;1.00;;;;;;2273221;61;1131;-86
2023/08/25 06:29:46;167863.00;0.56;290.59;0.00;0.00;0.62;;;;;29.80;1.00;;;;;;2273177;61;1126;-86
2023/08/25 06:32:13;211885.00;0.71;366.38;41773.00;0.14;72.96;;;;;28.60;1.00;;;;;;2273115;61;1426;-86
2023/08/25 06:34:39;27304.00;0.09;47.92;0.00;0.00;0.62;;;;;27.70;1.00;;;;;;2273089;61;2002;-86
2023/08/25 06:37:08;0.00;0.00;0.62;0.00;0.00;0.62;;;;;27.40;1.00;;;;;;2273074;61;1096;-84
2023/08/25 06:39:34;104278.00;0.35;180.96;0.00;0.00;0.62;;;;;27.10;1.00;;;;;;2272908;61;1019;-86
2023/08/25 06:42:02;129989.00;0.43;225.31;0.00;0.00;0.62;;;;;27.00;1.00;;;;;;2273103;61;1730;-86
2023/08/25 06:44:29;33784.00;0.11;59.13;0.00;0.00;0.62;;;;;27.00;1.00;;;;;;2273167;61;1053;-88
2023/08/25 06:46:56;9976.00;0.03;17.91;0.00;0.00;0.62;;;;;27.00;1.00;;;;;;2273181;61;1033;-88
2023/08/25 06:49:23;439893.00;1.47;758.40;46780.00;0.16;81.62;;;;;26.70;1.00;;;;;;2273116;61;955;-86
2023/08/25 06:51:53;106371.00;0.35;184.57;0.00;0.00;0.62;;;;;26.60;1.00;;;;;;2273177;61;1375;-88
2023/08/25 06:54:24;225268.00;0.75;389.41;0.00;0.00;0.62;;;;;26.50;1.00;;;;;;2273132;61;2006;-86
2023/08/25 06:56:50;0.00;0.00;0.62;0.00;0.00;0.62;;;;;26.60;1.00;;;;;;2273054;61;1121;-87
2023/08/25 06:59:18;403148.00;1.34;695.22;0.00;0.00;0.62;;;;;27.00;1.00;;;;;;2272369;61;1087;-86
2023/08/25 07:04:14;589592.00;1.97;1016.25;0.00;0.00;0.62;;;;;27.30;1.00;;;;;;2318269;56;3618;-90
2023/08/25 07:11:39;314954.00;1.05;543.62;0.00;0.00;0.62;;;;;27.40;1.00;;;;;;2300321;55;3704;-90
2023/08/25 07:16:35;731425.00;2.44;1261.78;0.00;0.00;0.62;;;;;27.50;1.00;;;;;;2278649;61;1414;-89
2023/08/25 07:19:02;332812.00;1.11;574.32;95275.00;0.32;165.42;;;;;27.40;1.00;;;;;;2277033;61;1086;-88
2023/08/25 07:21:29;59894.00;0.20;104.29;0.00;0.00;0.62;;;;;27.30;1.00;;;;;;2294210;39;3629;-90
2023/08/25 07:23:56;54999.00;0.18;95.83;0.00;0.00;0.62;;;;;27.60;1.00;;;;;;2276840;61;1133;-87
2023/08/25 07:26:25;4664.00;0.02;8.70;0.00;0.00;0.62;;;;;27.40;1.00;;;;;;2276872;61;1030;-88
2023/08/25 07:28:53;182735.00;0.61;316.20;0.00;0.00;0.62;;;;;26.90;1.00;;;;;;2276778;61;1012;-89
2023/08/25 07:31:20;185305.00;0.62;320.62;31869.00;0.11;55.82;;;;;26.50;1.00;;;;;;2276722;61;1411;-86
2023/08/25 07:33:47;124910.00;0.42;216.55;29662.00;0.10;52.00;;;;;26.10;1.00;;;;;;2276591;61;2001;-88
2023/08/25 07:38:42;92670.00;0.31;160.92;0.00;0.00;0.62;;;;;26.10;1.00;;;;;;2278816;61;1392;-86
2023/08/25 07:41:09;77910.00;0.26;135.43;0.00;0.00;0.62;;;;;26.40;1.00;;;;;;2276928;61;1347;-90
2023/08/25 07:43:36;0.00;0.00;0.62;0.00;0.00;0.62;;;;;26.20;1.20;;;;;;2279963;40;3640;-88
2023/08/25 07:55:59;993665.00;3.31;1721.26;0.00;0.00;0.62;;;;;27.00;1.00;;;;;;2328375;55;3601;-87
2023/08/25 08:13:20;436056.00;1.45;751.80;0.00;0.00;0.62;;;;;24.00;10.50;;;;;;2278559;61;1429;-88
2023/08/25 08:15:47;245621.00;0.82;424.42;4361.00;0.01;8.18;;;;;24.00;11.20;;;;;;2276879;61;2009;-88
2023/08/25 08:20:45;483952.00;1.61;834.20;96725.00;0.32;167.92;;;;;23.90;11.70;;;;;;2301918;56;3574;-88
2023/08/25 08:23:12;344353.00;1.15;594.16;0.00;0.00;0.62;;;;;23.60;11.00;;;;;;2292467;40;3626;-89
2023/08/25 08:25:39;212330.00;0.71;367.15;0.00;0.00;0.62;;;;;23.60;11.40;;;;;;2276733;61;1113;-89
2023/08/25 08:28:08;171626.00;0.57;297.07;0.00;0.00;0.62;;;;;24.00;9.90;;;;;;2276679;61;1701;-88
2023/08/25 08:30:37;0.00;0.00;0.62;0.00;0.00;0.62;;;;;24.40;8.50;;;;;;2276830;61;1778;-87
2023/08/25 08:33:04;236305.00;0.79;408.40;33580.00;0.11;58.78;;;;;25.00;5.20;;;;;;2287502;55;3758;-87
2023/08/25 08:40:36;411007.00;1.37;708.73;64254.00;0.21;111.83;;;;;25.70;4.40;;;;;;2291971;56;2097;-88
2023/08/25 08:43:09;376239.00;1.25;648.96;61859.00;0.21;107.69;;;;;25.90;4.40;;;;;;2276258;61;1761;-88
2023/08/25 08:45:40;723279.00;2.41;1247.63;75935.00;0.25;132.02;;;;;26.10;4.10;;;;;;2297737;40;3775;-88
2023/08/25 08:48:08;498549.00;1.66;859.33;63221.00;0.21;110.04;;;;;26.20;3.70;;;;;;2276891;61;969;-89
2023/08/25 08:53:05;1311416.00;4.37;2293.01;56661.00;0.19;98.70;;;;;26.50;2.60;;;;;;2327056;39;3520;-89
2023/08/25 08:55:35;344715.00;1.15;594.78;63296.00;0.21;110.17;;;;;26.60;1.30;;;;;;2305678;40;3434;-89
2023/08/25 08:58:03;597167.00;1.99;1029.33;64174.00;0.21;111.69;;;;;26.90;2.20;;;;;;2300929;56;3743;-89
2023/08/25 09:00:31;497171.00;1.66;856.95;112317.00;0.37;194.83;;;;;26.80;2.50;;;;;;2368495;55;3700;-88
2023/08/25 09:03:05;368935.00;1.23;636.41;67564.00;0.23;117.55;;;;;26.80;3.10;;;;;;2290604;55;3831;-88
2023/08/25 09:12:57;201382.00;0.67;348.30;65644.00;0.22;114.23;;;;;26.40;3.10;;;;;;2282644;55;3773;-88
2023/08/25 09:27:53;118512280.00;395.04;67426344.00;64720.00;0.22;112.64;;;;;26.90;2.50;;;;;;1586055;56;3567;-89
2023/08/25 09:37:55;704192.00;2.35;1214.51;131786.00;0.44;228.41;;;;;27.80;1.00;;;;;;2298955;39;3571;-88
2023/08/25 09:50:23;543267.00;1.81;936.35;69636.00;0.23;121.13;;;;;27.60;1.00;;;;;;2278881;61;1416;-89
2023/08/25 09:57:53;616081.00;2.05;1061.99;71025.00;0.24;123.53;;;;;28.40;1.00;;;;;;2298715;40;3444;-91
2023/08/25 10:00:20;335037.00;1.12;578.14;61145.00;0.20;106.46;;;;;28.50;1.00;;;;;;2279220;55;3868;-89
2023/08/25 10:02:49;252186.00;0.84;435.71;63827.00;0.21;111.09;;;;;28.80;1.00;;;;;;2298559;40;3632;-89
2023/08/25 10:05:18;162969.00;0.54;282.15;61521.00;0.21;107.11;;;;;28.90;1.00;;;;;;2277290;61;1776;-89
2023/08/25 10:07:48;298311.00;0.99;515.02;64670.00;0.22;112.55;;;;;29.20;1.00;;;;;;2340833;56;3757;-89
2023/08/25 10:10:15;168174.00;0.56;291.12;62766.00;0.21;109.26;;;;;29.20;1.00;;;;;;2277096;61;1411;-89
2023/08/25 10:12:44;284459.00;0.95;491.20;63257.00;0.21;110.11;;;;;29.30;1.00;;;;;;2319924;39;3634;-88
2023/08/25 10:15:12;553285.00;1.84;953.62;68064.00;0.23;118.41;;;;;29.10;1.00;;;;;;2308583;56;3777;-88
2023/08/25 10:17:41;169185.00;0.56;292.86;63480.00;0.21;110.49;;;;;29.10;1.00;;;;;;2277088;61;1109;-87
2023/08/25 10:20:09;169976.00;0.57;294.23;66378.00;0.22;115.50;;;;;29.20;1.00;;;;;;2277186;61;1569;-88
2023/08/25 10:22:39;827073.00;2.76;1428.38;116888.00;0.39;202.71;;;;;29.80;1.00;;;;;;2277308;61;1115;-91
2023/08/25 10:25:10;267992.00;0.89;462.89;63912.00;0.21;111.24;;;;;30.10;1.00;;;;;;2277329;61;1077;-89
2023/08/25 10:27:38;302210.00;1.01;521.72;61756.00;0.21;107.51;;;;;30.40;1.00;;;;;;2277274;61;1765;-89
2023/08/25 10:30:07;607877.00;2.03;1047.82;95529.00;0.32;165.85;;;;;30.20;1.00;;;;;;2277299;61;1142;-88
2023/08/25 10:32:49;613078.00;2.04;1056.81;64247.00;0.21;111.82;;;;;30.10;1.00;;;;;;2277353;61;1040;-88
2023/08/25 10:35:16;361577.00;1.21;623.76;0.00;0.00;0.62;;;;;30.50;1.00;;;;;;2276977;61;1919;-90
2023/08/25 10:37:43;580538.00;1.94;1000.63;89246.00;0.30;155.01;;;;;30.40;1.00;;;;;;2277309;61;1110;-87
2023/08/25 10:40:12;253472.00;0.84;437.92;68829.00;0.23;119.74;;;;;30.70;1.00;;;;;;2277365;61;1419;-88
2023/08/25 10:42:39;109061.00;0.36;189.21;42950.00;0.14;74.99;;;;;30.40;1.00;;;;;;2277267;61;1100;-88
2023/08/25 10:45:08;5441.00;0.02;10.05;0.00;0.00;0.62;;;;;30.50;1.00;;;;;;2277297;61;1639;-89
2023/08/25 10:47:44;155510.00;0.52;269.30;0.00;0.00;0.62;;;;;31.00;1.00;;;;;;2277297;61;1090;-88
2023/08/25 10:50:11;0.00;0.00;0.62;0.00;0.00;0.62;;;;;31.00;1.00;;;;;;2277224;61;1341;-90
2023/08/25 10:52:43;57708.00;0.19;100.51;0.00;0.00;0.62;;;;;31.20;1.00;;;;;;2277256;61;1134;-88
2023/08/25 10:55:26;0.00;0.00;0.62;0.00;0.00;0.62;;;;;31.00;1.00;;;;;;2277288;61;1915;-87
2023/08/25 10:57:54;166796.00;0.56;288.75;76296.00;0.25;132.64;;;;;31.20;1.00;;;;;;2277272;61;1149;-88
2023/08/25 11:00:29;303456.00;1.01;523.86;59902.00;0.20;104.31;;;;;31.40;1.00;;;;;;2277173;61;1407;-87
2023/08/25 11:02:57;187542.00;0.63;324.48;54017.00;0.18;94.13;;;;;31.60;1.00;;;;;;2277230;61;1184;-88
2023/08/25 11:05:54;299183.00;1.00;516.52;68509.00;0.23;119.18;;;;;31.60;1.00;;;;;;2277300;61;986;-88
2023/08/25 11:08:25;167975.00;0.56;290.78;63265.00;0.21;110.12;;;;;31.50;1.00;;;;;;2268788;61;1101;-89
2023/08/25 11:11:15;242025.00;0.81;418.23;68611.00;0.23;119.36;;;;;30.90;1.00;;;;;;2275795;61;1673;-87
2023/08/25 11:13:43;655435.00;2.18;1130.04;115479.00;0.38;200.28;;;;;30.60;1.00;;;;;;2277141;61;1138;-88
2023/08/25 11:16:11;444712.00;1.48;766.69;57708.00;0.19;100.51;;;;;31.10;1.00;;;;;;2277069;61;1910;-87
2023/08/25 11:18:40;665855.00;2.22;1148.08;75606.00;0.25;131.45;;;;;31.30;1.00;;;;;;2277234;61;1047;-87
2023/08/25 11:21:07;562934.00;1.88;970.26;4132.00;0.01;7.78;;;;;31.40;1.00;;;;;;2277069;61;1715;-88
2023/08/25 11:23:39;566754.00;1.89;976.85;63182.00;0.21;109.98;;;;;30.70;1.00;;;;;;2277184;61;1055;-88
2023/08/25 11:26:07;396401.00;1.32;683.62;0.00;0.00;0.62;;;;;30.20;1.00;;;;;;2277083;61;1100;-89